Current | Forecast
Updated: 4:30 PM EEST on June 25, 2017
Observed at Krivvy Rih, Ukraine
Temperature 28°C
Humidity 39%
Dew Point 13°C
Wind WNW at 18 km/h
Pressure 1013 hPa (Steady)
Conditions Mostly Cloudy
Visibility 10.0 kilometers
UV 3 out of 16
Clouds Mostly Cloudy (BKN) : 1219 m
Yesterday's Maximum 25°C
Yesterday's Minimum 18°C approx.
Yesterday's Cooling Degree Days 6 approx.
Sunrise4:52 AM EEST
Sunset8:53 PM EEST
Moon Rise6:25 AM EEST
Moon Set9:56 PM EEST
Moon PhaseMoon Phase
Waxing Crescent
Raw METARMETAR UKDR 251330Z 30005MPS 250V330 9999 BKN040 28/13 Q1013 R36/09//70 NOSIG


Monday
. High: 57° F.
Tuesday
. High: 64° F.
Wednesday
. High: 66° F.
Thursday
. High: 71° F.
Friday
. High: 60° F.
Saturday
. High: 59° F.
Sunday
. High: 68° F.
Monday
. High: 69° F.

Units: English | Metric

Find the Weather for any City, State or Zipcode, or Country:

U.S. State List | Severe Weather | Tropical Storms | Ski Conditions
United States | Canada | Central America | South America | Asia | Europe | Australia | Africa | Islands

Weather Underground

© Copyright 2017
The Weather Company, LLC